Flight Track Log - Related Links

Times and Time Zones

All times are in EDT time to prevent confusion due to time zone crossing. See the N762NC flight status page for this flight to view local times or setup timezone preferences in your user account.


Time Position Orientation Groundspeed Altitude Reporting Facility
EDT Latitude Longitude Course Direction KTS MPH feet Rate Location/Type
Sun 06:51:31 PM 32.2664 -81.2439 287° West 279 321 7,100  Level Jacksonville Center
Sun 06:52:31 PM 32.3175 -81.3094 313° West 268 308 9,400 2,150 Climbing Jacksonville Center
Sun 06:53:31 PM 32.3808 -81.3797 317° Northwest 284 327 11,400 2,000 Climbing Jacksonville Center
Sun 06:54:00 PM 32.2581 -81.6963 288° West  Level FlightAware Approximate
Sun 06:54:31 PM 32.4358 -81.4403 317° Northwest 296 341 13,400  Level Jacksonville Center
Sun 06:55:00 PM 32.2809 -81.7800 288° West  Level FlightAware Approximate
Sun 06:55:31 PM 32.5158 -81.5006 328° Northwest 308 354 15,500  Level Jacksonville Center
Sun 06:56:00 PM 32.3035 -81.8639 287° West  Level FlightAware Approximate
Sun 06:56:31 PM 32.5833 -81.5539 326° Northwest 314 361 17,000  Level Jacksonville Center
Sun 06:58:28 PM 32.6844 -81.6992 310° West 314 361 19,800 1,322 Climbing Atlanta Center
Sun 06:59:28 PM 32.6783 -81.8153 266° West 300 345 20,900 950 Climbing Atlanta Center
Sun 07:00:28 PM 32.6678 -81.9367 264° West 338 389 21,700 550 Climbing Atlanta Center
Sun 07:01:28 PM 32.6533 -82.0603 262° West 368 423 22,000 150 Climbing Atlanta Center
Sun 07:02:28 PM 32.6428 -82.1861 264° West 381 438 22,000  Level Atlanta Center
Sun 07:03:28 PM 32.6300 -82.3097 263° West 386 444 22,000  Level Atlanta Center
Sun 07:04:28 PM 32.6189 -82.4308 264° West 381 438 22,000  Level Atlanta Center
Sun 07:05:28 PM 32.6058 -82.5494 263° West 376 433 22,000  Level Atlanta Center
Sun 07:06:28 PM 32.5883 -82.6583 259° West 357 411 22,000  Level Atlanta Center
Sun 07:07:28 PM 32.5728 -82.7694 261° West 346 398 22,000  Level Atlanta Center
Sun 07:08:28 PM 32.5989 -82.8725 287° West 333 383 22,000  Level Atlanta Center
Sun 07:09:28 PM 32.6933 -82.9133 340° North 304 350 22,000  Level Atlanta Center
Sun 07:10:28 PM 32.7914 -82.9319 351° North 309 356 22,000 -300 Level Atlanta Center
Sun 07:11:28 PM 32.8897 -82.9553 349° North 334 384 21,400 -1,100 Descending Atlanta Center
Sun 07:12:28 PM 32.9839 -82.9739 351° North 347 399 19,800 -1,700 Descending Atlanta Center
Sun 07:13:28 PM 33.0739 -83.0025 345° North 342 394 18,000 -1,500 Descending Atlanta Center
Sun 07:14:28 PM 33.1142 -83.0889 299° West 301 346 16,800 -1,100 Descending Atlanta Center
Sun 07:15:28 PM 33.1233 -83.2006 276° West 296 341 15,800 -1,000 Descending Atlanta Center
Sun 07:16:28 PM 33.1344 -83.3019 277° West 301 346 14,800 -1,000 Descending Atlanta Center
Sun 07:17:28 PM 33.1497 -83.3986 281° West 313 360 13,800 -950 Descending Atlanta Center
Sun 07:18:28 PM 33.1628 -83.4978 279° West 308 354 12,900 -750 Descending Atlanta Center
Sun 07:19:28 PM 33.1756 -83.5919 279° West 308 354 12,300 -450 Descending Atlanta Center
Sun 07:20:28 PM 33.1864 -83.6914 277° West 298 343 12,000 -100 Descending Atlanta Center
Sun 07:21:28 PM 33.1992 -83.7831 279° West 292 336 12,100 -300 Climbing Atlanta Center
Sun 07:22:28 PM 33.2411 -83.8650 301° West 287 330 11,400 -1,200 Descending Atlanta Center
Sun 07:23:28 PM 33.2933 -83.9369 311° West 287 330 9,700 -1,500 Descending Atlanta Center
Sun 07:24:28 PM 33.3414 -83.9942 315° West 287 330 8,400 -1,250 Descending Atlanta Center
Sun 07:25:28 PM 33.4164 -84.0114 349° North 260 299 7,200 -1,050 Descending Atlanta Center
Sun 07:26:28 PM 33.4769 -84.0464 334° Northwest 247 284 6,300 -1,150 Descending Atlanta Center
Sun 07:27:28 PM 33.5333 -84.0786 335° Northwest 233 268 4,900 -1,300 Descending Atlanta Center
Sun 07:28:28 PM 33.5814 -84.1311 318° Northwest 233 268 3,700 -898 Descending Atlanta Center
Sun 07:29:35 PM 33.6167 -84.2167 296° West 223 257 3,000 -283 Descending Atlanta TRACON
Sun 07:30:35 PM 33.6167 -84.2833 270° West 197 227 3,100 -353 Climbing Atlanta TRACON
Sun 07:31:34 PM 33.6167 -84.3333 270° West 191 220 2,300 -800 Descending Atlanta TRACON
Sun 07:32:35 PM 33.6167 -84.3833 270° West 141 162 1,500 -787 Descending Atlanta TRACON
Sun 07:34:00 PM 33.6333 -84.4167 40° Northeast  Level FlightAware Approximate
Sun 07:41:00 PM 33.6367 -84.4279 40° Northeast  Level Estimated
Sun 07:42:00 PM 33.6367 -84.4279 40° Northeast  Level Estimated

Login

Don't have an account? Register now (free) for customized features, flight alerts, and more!